Connexion S'enregistrer

Connexion à votre compte

Identifiant
Mot de passe
Maintenir la connexion active sur ce site

Créer un compte

Pour valider ce formulaire, vous devez remplir tous les champs.
Nom
Identifiant
Mot de passe
Répétez le mot de passe
Adresse e-mail
Répétez l'adresse e-mail

Nous contacter

 Téléphone : +33 (0)4 79 54 41 81

Coordonnées détaillées et accès : cliquez ici

 
LFLB °C
    Ferienhaus Ostsee
[source: ADDS]
METAR
LFLB 210330Z AUTO 18002KT 5000 0500 R18/P5000 R36/P5000 BCFG NSC M02/M02 Q1028 =
TAF LFLB 201700Z 2018/2118 VRB03KT CAVOK PROB40 TEMPO 2104/2108 2000 BCFG
TAF
TAF LFLB 201700Z 2018/2118 VRB03KT CAVOK PROB40 TEMPO 2104/2108 2000 BCFG =
SR / SS: 06:29 / 17:11 UTC (Lever/Coucher du soleil le 2019-02-21)
JSN Boot template designed by JoomlaShine.com